createdAt,value
2023-05-14T00:00:21.000Z,16.1
2023-05-14T00:02:33.000Z,15.7
2023-05-14T00:03:40.000Z,16.1
2023-05-14T00:05:52.000Z,15.4
2023-05-14T00:06:58.000Z,15.4
2023-05-14T00:08:03.000Z,16.1
2023-05-14T00:09:09.000Z,15.4
2023-05-14T00:10:15.000Z,15.1
2023-05-14T00:11:21.000Z,14.8
2023-05-14T00:12:27.000Z,15.1
2023-05-14T00:13:33.000Z,15.4
2023-05-14T00:14:39.000Z,15.4
2023-05-14T00:15:45.000Z,15.4
2023-05-14T00:16:51.000Z,15.1
2023-05-14T00:17:57.000Z,15.1
2023-05-14T00:19:04.000Z,15.4
2023-05-14T00:20:10.000Z,15.4
2023-05-14T00:21:16.000Z,15.7
2023-05-14T00:22:21.000Z,15.7
2023-05-14T00:23:27.000Z,15.4
2023-05-14T00:24:33.000Z,15.7
2023-05-14T00:25:39.000Z,15.4
2023-05-14T00:26:45.000Z,15.7
2023-05-14T00:27:51.000Z,15.1
2023-05-14T00:28:57.000Z,15.1
2023-05-14T00:30:03.000Z,14.8
2023-05-14T00:31:09.000Z,15.1
2023-05-14T00:32:15.000Z,15.4
2023-05-14T00:33:21.000Z,14.8
2023-05-14T00:34:28.000Z,14.8
2023-05-14T00:35:34.000Z,15.1
2023-05-14T00:36:39.000Z,14.8
2023-05-14T00:37:45.000Z,15.1
2023-05-14T00:38:51.000Z,14.8
2023-05-14T00:39:57.000Z,15.4
2023-05-14T00:41:03.000Z,15.1
2023-05-14T00:42:09.000Z,16.1
2023-05-14T00:43:15.000Z,14.8
2023-05-14T00:44:20.000Z,14.8
2023-05-14T00:45:26.000Z,14.5
2023-05-14T00:46:32.000Z,15.7
2023-05-14T00:47:38.000Z,15.4
2023-05-14T00:48:45.000Z,15.1
2023-05-14T00:49:51.000Z,15.4
2023-05-14T00:50:57.000Z,14.8
2023-05-14T00:52:03.000Z,15.1
2023-05-14T00:53:09.000Z,15.4
2023-05-14T00:54:15.000Z,14.8
2023-05-14T00:55:21.000Z,15.1
2023-05-14T00:56:27.000Z,15.1
2023-05-14T00:57:33.000Z,14.5
2023-05-14T00:58:38.000Z,15.7
2023-05-14T01:00:50.000Z,14.5
2023-05-14T01:01:57.000Z,15.1
2023-05-14T01:03:03.000Z,14.8
2023-05-14T01:04:09.000Z,14.8
2023-05-14T01:05:15.000Z,14.8
2023-05-14T01:06:21.000Z,15.4
2023-05-14T01:07:27.000Z,15.1
2023-05-14T01:08:33.000Z,14.8
2023-05-14T01:09:39.000Z,15.1
2023-05-14T01:10:45.000Z,14.8
2023-05-14T01:11:51.000Z,15.4
2023-05-14T01:12:56.000Z,14.5
2023-05-14T01:14:02.000Z,15.7
2023-05-14T01:15:08.000Z,15.1
2023-05-14T01:16:14.000Z,14.8
2023-05-14T01:17:21.000Z,14.5
2023-05-14T01:18:27.000Z,15.4
2023-05-14T01:19:33.000Z,14.8
2023-05-14T01:20:39.000Z,14.8
2023-05-14T01:21:45.000Z,14.8
2023-05-14T01:22:51.000Z,15.7
2023-05-14T01:23:57.000Z,14.5
2023-05-14T01:25:03.000Z,14.5
2023-05-14T01:26:09.000Z,14.8
2023-05-14T01:27:14.000Z,14.8
2023-05-14T01:28:20.000Z,14.8
2023-05-14T01:29:26.000Z,14.8
2023-05-14T01:30:32.000Z,14.5
2023-05-14T01:31:38.000Z,15.1
2023-05-14T01:32:45.000Z,14.5
2023-05-14T01:33:51.000Z,15.1
2023-05-14T01:34:57.000Z,14.8
2023-05-14T01:36:03.000Z,14.5
2023-05-14T01:37:09.000Z,14.8
2023-05-14T01:38:15.000Z,14.5
2023-05-14T01:39:21.000Z,15.4
2023-05-14T01:40:27.000Z,14.8
2023-05-14T01:41:32.000Z,15.1
2023-05-14T01:42:38.000Z,14.5
2023-05-14T01:44:50.000Z,15.1
2023-05-14T01:45:56.000Z,14.5
2023-05-14T01:47:02.000Z,15.1
2023-05-14T01:48:09.000Z,14.8
2023-05-14T01:49:15.000Z,14.8
2023-05-14T01:50:21.000Z,14.5
2023-05-14T01:51:27.000Z,14.5
2023-05-14T01:52:33.000Z,14.5
2023-05-14T01:53:39.000Z,14.1
2023-05-14T01:54:45.000Z,14.5
2023-05-14T01:55:50.000Z,14.8
2023-05-14T01:56:56.000Z,15.1
2023-05-14T01:58:02.000Z,14.5
2023-05-14T01:59:08.000Z,15.4
2023-05-14T02:00:15.000Z,14.5
2023-05-14T02:01:21.000Z,15.7
2023-05-14T02:02:27.000Z,15.1
2023-05-14T02:03:33.000Z,14.8
2023-05-14T02:04:39.000Z,14.1
2023-05-14T02:05:45.000Z,14.5
2023-05-14T02:06:51.000Z,14.8
2023-05-14T02:07:57.000Z,13.5
2023-05-14T02:09:03.000Z,15.1
2023-05-14T02:10:08.000Z,15.1
2023-05-14T02:11:14.000Z,15.1
2023-05-14T02:12:20.000Z,15.1
2023-05-14T02:13:26.000Z,14.8
2023-05-14T02:14:32.000Z,15.1
2023-05-14T02:15:39.000Z,14.1
2023-05-14T02:16:45.000Z,14.8
2023-05-14T02:17:51.000Z,14.8
2023-05-14T02:18:57.000Z,15.1
2023-05-14T02:20:03.000Z,14.5
2023-05-14T02:21:09.000Z,14.8
2023-05-14T02:22:15.000Z,14.5
2023-05-14T02:23:21.000Z,14.5
2023-05-14T02:24:26.000Z,15.1
2023-05-14T02:25:32.000Z,15.1
2023-05-14T02:26:38.000Z,14.8
2023-05-14T02:27:44.000Z,14.1
2023-05-14T02:28:50.000Z,14.5
2023-05-14T02:29:56.000Z,14.5
2023-05-14T02:31:03.000Z,14.8
2023-05-14T02:32:09.000Z,14.5
2023-05-14T02:33:15.000Z,14.5
2023-05-14T02:34:21.000Z,14.1
2023-05-14T02:35:27.000Z,14.8
2023-05-14T02:36:33.000Z,15.1
2023-05-14T02:37:39.000Z,14.1
2023-05-14T02:39:50.000Z,14.5
2023-05-14T02:40:56.000Z,14.8
2023-05-14T02:42:02.000Z,15.4
2023-05-14T02:43:09.000Z,14.1
2023-05-14T02:44:15.000Z,14.1
2023-05-14T02:45:21.000Z,14.8
2023-05-14T02:46:27.000Z,15.1
2023-05-14T02:47:33.000Z,13.8
2023-05-14T02:48:38.000Z,14.5
2023-05-14T02:50:49.000Z,14.5
2023-05-14T02:51:55.000Z,14.8
2023-05-14T02:53:01.000Z,14.8
2023-05-14T02:54:07.000Z,14.1
2023-05-14T02:55:13.000Z,14.8
2023-05-14T02:56:19.000Z,15.1
2023-05-14T02:57:25.000Z,14.8
2023-05-14T02:58:32.000Z,14.1
2023-05-14T02:59:38.000Z,14.5
2023-05-14T03:00:44.000Z,14.8
2023-05-14T03:01:50.000Z,14.1
2023-05-14T03:02:56.000Z,14.5
2023-05-14T03:04:01.000Z,13.8
2023-05-14T03:05:07.000Z,14.8
2023-05-14T03:06:13.000Z,14.8
2023-05-14T03:07:19.000Z,14.5
2023-05-14T03:08:25.000Z,14.8
2023-05-14T03:09:31.000Z,14.8
2023-05-14T03:10:37.000Z,14.1
2023-05-14T03:11:43.000Z,14.1
2023-05-14T03:12:49.000Z,14.5
2023-05-14T03:13:56.000Z,14.8
2023-05-14T03:16:08.000Z,14.8
2023-05-14T03:17:14.000Z,14.5
2023-05-14T03:18:19.000Z,14.8
2023-05-14T03:20:31.000Z,13.8
2023-05-14T03:21:37.000Z,15.1
2023-05-14T03:22:43.000Z,14.5
2023-05-14T03:23:49.000Z,13.8
2023-05-14T03:24:55.000Z,14.5
2023-05-14T03:26:01.000Z,14.1
2023-05-14T03:27:08.000Z,14.5
2023-05-14T03:28:14.000Z,14.1
2023-05-14T03:29:20.000Z,14.1
2023-05-14T03:30:26.000Z,14.1
2023-05-14T03:31:32.000Z,14.1
2023-05-14T03:32:37.000Z,14.5
2023-05-14T03:34:49.000Z,14.5
2023-05-14T03:35:54.000Z,13.8
2023-05-14T03:36:59.000Z,13.8
2023-05-14T03:38:05.000Z,14.5
2023-05-14T03:39:11.000Z,13.5
2023-05-14T03:40:18.000Z,14.5
2023-05-14T03:41:24.000Z,13.8
2023-05-14T03:42:30.000Z,14.8
2023-05-14T03:43:36.000Z,15.1
2023-05-14T03:44:42.000Z,14.5
2023-05-14T03:45:48.000Z,14.1
2023-05-14T03:46:53.000Z,13.2
2023-05-14T03:47:58.000Z,13.8
2023-05-14T03:49:04.000Z,14.8
2023-05-14T03:50:10.000Z,13.5
2023-05-14T03:51:16.000Z,14.1
2023-05-14T03:52:23.000Z,14.1
2023-05-14T03:53:29.000Z,15.1
2023-05-14T03:54:35.000Z,14.5
2023-05-14T03:55:41.000Z,14.1
2023-05-14T03:58:59.000Z,14.8
2023-05-14T04:00:04.000Z,13.8
2023-05-14T04:01:09.000Z,14.1
2023-05-14T04:02:15.000Z,14.5
2023-05-14T04:03:21.000Z,12.8
2023-05-14T04:04:27.000Z,13.8
2023-05-14T04:05:33.000Z,14.5
2023-05-14T04:06:39.000Z,14.5
2023-05-14T04:07:46.000Z,14.5
2023-05-14T04:08:52.000Z,14.1
2023-05-14T04:09:58.000Z,14.8
2023-05-14T04:11:04.000Z,13.8
2023-05-14T04:12:09.000Z,14.1
2023-05-14T04:13:14.000Z,14.5
2023-05-14T04:14:20.000Z,14.5
2023-05-14T04:15:26.000Z,13.8
2023-05-14T04:16:32.000Z,14.1
2023-05-14T04:17:38.000Z,14.1
2023-05-14T04:19:50.000Z,14.8
2023-05-14T04:20:56.000Z,14.1
2023-05-14T04:22:03.000Z,14.5
2023-05-14T04:23:09.000Z,14.5
2023-05-14T04:24:15.000Z,13.8
2023-05-14T04:25:20.000Z,14.1
2023-05-14T04:26:26.000Z,14.1
2023-05-14T04:27:32.000Z,15.1
2023-05-14T04:28:38.000Z,14.8
2023-05-14T04:29:44.000Z,13.8
2023-05-14T04:30:50.000Z,14.1
2023-05-14T04:31:56.000Z,15.1
2023-05-14T04:33:02.000Z,14.5
2023-05-14T04:34:08.000Z,14.1
2023-05-14T04:35:14.000Z,14.1
2023-05-14T04:36:21.000Z,13.8
2023-05-14T04:37:27.000Z,14.1
2023-05-14T04:38:33.000Z,14.1
2023-05-14T04:40:44.000Z,14.1
2023-05-14T04:41:50.000Z,14.1
2023-05-14T04:42:56.000Z,14.1
2023-05-14T04:44:02.000Z,14.5
2023-05-14T04:46:14.000Z,13.8
2023-05-14T04:47:20.000Z,14.1
2023-05-14T04:49:32.000Z,14.1
2023-05-14T04:50:38.000Z,14.1
2023-05-14T04:51:43.000Z,13.2
2023-05-14T04:52:49.000Z,14.5
2023-05-14T04:53:55.000Z,13.8
2023-05-14T04:55:01.000Z,14.1
2023-05-14T04:56:07.000Z,14.8
2023-05-14T04:57:13.000Z,13.8
2023-05-14T04:58:19.000Z,13.8
2023-05-14T04:59:25.000Z,13.8
2023-05-14T05:00:31.000Z,13.8
2023-05-14T05:02:42.000Z,13.8
2023-05-14T05:03:47.000Z,13.8
2023-05-14T05:04:54.000Z,14.8
2023-05-14T05:06:00.000Z,14.1
2023-05-14T05:07:06.000Z,14.5
2023-05-14T05:08:12.000Z,14.1
2023-05-14T05:09:18.000Z,14.1
2023-05-14T05:10:24.000Z,13.8
2023-05-14T05:11:30.000Z,14.1
2023-05-14T05:12:36.000Z,14.1
2023-05-14T05:13:41.000Z,14.1
2023-05-14T05:14:46.000Z,13.8
2023-05-14T05:15:52.000Z,14.5
2023-05-14T05:16:59.000Z,13.8
2023-05-14T05:19:11.000Z,13.8
2023-05-14T05:21:23.000Z,13.8
2023-05-14T05:22:29.000Z,13.8
2023-05-14T05:23:35.000Z,13.8
2023-05-14T05:24:41.000Z,14.1
2023-05-14T05:25:47.000Z,14.5
2023-05-14T05:26:52.000Z,13.5
2023-05-14T05:27:57.000Z,14.5
2023-05-14T05:29:03.000Z,14.1
2023-05-14T05:30:09.000Z,13.5
2023-05-14T05:31:16.000Z,13.8
2023-05-14T05:32:22.000Z,13.8
2023-05-14T05:33:28.000Z,14.1
2023-05-14T05:34:34.000Z,13.5
2023-05-14T05:35:40.000Z,13.5
2023-05-14T05:36:46.000Z,14.1
2023-05-14T05:37:51.000Z,13.8
2023-05-14T05:38:56.000Z,13.5
2023-05-14T05:40:02.000Z,13.8
2023-05-14T05:41:08.000Z,14.5
2023-05-14T05:42:14.000Z,13.8
2023-05-14T05:43:21.000Z,14.1
2023-05-14T05:44:27.000Z,13.5
2023-05-14T05:45:33.000Z,13.2
2023-05-14T05:46:39.000Z,12.8
2023-05-14T05:47:45.000Z,14.5
2023-05-14T05:48:51.000Z,13.8
2023-05-14T05:49:57.000Z,14.5
2023-05-14T05:51:03.000Z,13.5
2023-05-14T05:52:09.000Z,14.1
2023-05-14T05:53:14.000Z,13.5
2023-05-14T05:54:20.000Z,13.8
2023-05-14T05:55:26.000Z,13.8
2023-05-14T05:56:32.000Z,14.5
2023-05-14T05:57:38.000Z,13.5
2023-05-14T05:58:45.000Z,13.8
2023-05-14T05:59:51.000Z,14.1
2023-05-14T06:00:57.000Z,14.1
2023-05-14T06:02:03.000Z,13.5
2023-05-14T06:03:09.000Z,14.5
2023-05-14T06:04:15.000Z,14.5
2023-05-14T06:05:21.000Z,14.1
2023-05-14T06:06:27.000Z,14.1
2023-05-14T06:07:32.000Z,14.1
2023-05-14T06:08:38.000Z,13.5
2023-05-14T06:09:44.000Z,14.1
2023-05-14T06:10:50.000Z,14.1
2023-05-14T06:11:57.000Z,13.8
2023-05-14T06:13:03.000Z,13.8
2023-05-14T06:14:09.000Z,13.8
2023-05-14T06:15:15.000Z,13.2
2023-05-14T06:16:21.000Z,13.5
2023-05-14T06:17:27.000Z,13.2
2023-05-14T06:19:39.000Z,13.8
2023-05-14T06:20:45.000Z,13.5
2023-05-14T06:21:50.000Z,13.8
2023-05-14T06:22:56.000Z,13.8
2023-05-14T06:24:02.000Z,13.5
2023-05-14T06:25:09.000Z,14.1
2023-05-14T06:27:21.000Z,14.5
2023-05-14T06:28:27.000Z,13.2
2023-05-14T06:29:33.000Z,13.8
2023-05-14T06:30:39.000Z,13.5
2023-05-14T06:31:45.000Z,14.1
2023-05-14T06:32:51.000Z,14.5
2023-05-14T06:33:57.000Z,13.2
2023-05-14T06:35:03.000Z,14.5
2023-05-14T06:36:08.000Z,13.8
2023-05-14T06:37:14.000Z,14.5
2023-05-14T06:38:20.000Z,13.2
2023-05-14T06:39:26.000Z,14.5
2023-05-14T06:40:33.000Z,13.8
2023-05-14T06:41:39.000Z,13.8
2023-05-14T06:42:45.000Z,14.1
2023-05-14T06:43:51.000Z,13.2
2023-05-14T06:44:57.000Z,13.8
2023-05-14T06:46:03.000Z,13.5
2023-05-14T06:47:09.000Z,14.1
2023-05-14T06:48:15.000Z,13.8
2023-05-14T06:49:21.000Z,14.1
2023-05-14T06:50:26.000Z,13.8
2023-05-14T06:52:38.000Z,13.2
2023-05-14T06:53:44.000Z,13.8
2023-05-14T06:54:50.000Z,13.5
2023-05-14T06:55:57.000Z,13.8
2023-05-14T06:57:03.000Z,12.2
2023-05-14T06:58:09.000Z,13.5
2023-05-14T06:59:15.000Z,14.1
2023-05-14T07:00:21.000Z,13.8
2023-05-14T07:01:27.000Z,13.2
2023-05-14T07:02:33.000Z,13.8
2023-05-14T07:03:39.000Z,13.2
2023-05-14T07:04:44.000Z,14.1
2023-05-14T07:05:50.000Z,13.2
2023-05-14T07:06:56.000Z,13.5
2023-05-14T07:08:03.000Z,12.8
2023-05-14T07:09:09.000Z,13.8
2023-05-14T07:10:15.000Z,13.5
2023-05-14T07:11:21.000Z,13.8
2023-05-14T07:12:27.000Z,14.1
2023-05-14T07:13:33.000Z,14.1
2023-05-14T07:14:39.000Z,13.5
2023-05-14T07:15:45.000Z,13.5
2023-05-14T07:16:51.000Z,13.5
2023-05-14T07:17:57.000Z,13.8
2023-05-14T07:19:02.000Z,13.8
2023-05-14T07:20:08.000Z,13.8
2023-05-14T07:21:14.000Z,13.8
2023-05-14T07:22:20.000Z,13.2
2023-05-14T07:23:27.000Z,14.1
2023-05-14T07:24:33.000Z,13.8
2023-05-14T07:25:39.000Z,13.5
2023-05-14T07:26:45.000Z,13.5
2023-05-14T07:27:51.000Z,13.8
2023-05-14T07:28:57.000Z,13.2
2023-05-14T07:30:03.000Z,13.8
2023-05-14T07:31:09.000Z,13.2
2023-05-14T07:32:15.000Z,13.2
2023-05-14T07:33:20.000Z,13.8
2023-05-14T07:34:26.000Z,14.1
2023-05-14T07:36:38.000Z,13.5
2023-05-14T07:37:45.000Z,13.5
2023-05-14T07:38:51.000Z,14.1
2023-05-14T07:39:57.000Z,13.5
2023-05-14T07:41:03.000Z,14.5
2023-05-14T07:42:09.000Z,14.1
2023-05-14T07:43:15.000Z,14.1
2023-05-14T07:44:21.000Z,13.8
2023-05-14T07:45:27.000Z,13.2
2023-05-14T07:46:33.000Z,13.8
2023-05-14T07:47:38.000Z,13.2
2023-05-14T07:48:44.000Z,14.1
2023-05-14T07:49:50.000Z,13.5
2023-05-14T07:50:56.000Z,13.2
2023-05-14T07:53:09.000Z,13.2
2023-05-14T07:54:15.000Z,13.5
2023-05-14T07:55:21.000Z,13.2
2023-05-14T07:56:27.000Z,14.5
2023-05-14T07:57:33.000Z,13.8
2023-05-14T07:58:39.000Z,14.1
2023-05-14T07:59:45.000Z,13.5
2023-05-14T08:00:51.000Z,14.1
2023-05-14T08:01:56.000Z,14.5
2023-05-14T08:03:02.000Z,13.5
2023-05-14T08:04:08.000Z,13.5
2023-05-14T08:06:21.000Z,13.2
2023-05-14T08:07:26.000Z,13.2
2023-05-14T08:09:38.000Z,13.5
2023-05-14T08:10:43.000Z,13.8
2023-05-14T08:11:48.000Z,13.5
2023-05-14T08:12:54.000Z,14.1
2023-05-14T08:14:00.000Z,13.8
2023-05-14T08:15:06.000Z,13.2
2023-05-14T08:16:12.000Z,13.5
2023-05-14T08:17:18.000Z,14.1
2023-05-14T08:18:24.000Z,13.5
2023-05-14T08:19:30.000Z,13.8
2023-05-14T08:20:37.000Z,13.2
2023-05-14T08:21:43.000Z,13.8
2023-05-14T08:22:48.000Z,13.8
2023-05-14T08:23:53.000Z,13.5
2023-05-14T08:24:59.000Z,14.1
2023-05-14T08:26:05.000Z,13.2
2023-05-14T08:27:11.000Z,14.1
2023-05-14T08:28:17.000Z,13.5
2023-05-14T08:29:23.000Z,13.5
2023-05-14T08:30:29.000Z,13.5
2023-05-14T08:31:35.000Z,13.2
2023-05-14T08:33:48.000Z,13.8
2023-05-14T08:34:54.000Z,13.8
2023-05-14T08:36:00.000Z,13.8
2023-05-14T08:37:06.000Z,13.8
2023-05-14T08:38:11.000Z,13.8
2023-05-14T08:39:17.000Z,13.8
2023-05-14T08:40:23.000Z,13.8
2023-05-14T08:42:35.000Z,13.8
2023-05-14T08:43:40.000Z,13.5
2023-05-14T08:44:45.000Z,13.5
2023-05-14T08:45:51.000Z,14.1
2023-05-14T08:46:57.000Z,13.8
2023-05-14T08:48:04.000Z,13.5
2023-05-14T08:49:10.000Z,13.8
2023-05-14T08:50:16.000Z,13.8
2023-05-14T08:51:22.000Z,13.5
2023-05-14T08:53:34.000Z,13.5
2023-05-14T08:54:40.000Z,13.5
2023-05-14T08:55:46.000Z,13.5
2023-05-14T08:56:52.000Z,13.8
2023-05-14T08:57:58.000Z,13.8
2023-05-14T08:59:03.000Z,14.1
2023-05-14T09:00:09.000Z,13.2
2023-05-14T09:01:15.000Z,13.5
2023-05-14T09:03:28.000Z,13.5
2023-05-14T09:04:33.000Z,14.5
2023-05-14T09:05:38.000Z,13.8
2023-05-14T09:06:44.000Z,13.2
2023-05-14T09:07:50.000Z,14.1
2023-05-14T09:08:56.000Z,13.2
2023-05-14T09:10:02.000Z,13.5
2023-05-14T09:12:14.000Z,13.2
2023-05-14T09:13:20.000Z,13.8
2023-05-14T09:14:26.000Z,14.1
2023-05-14T09:15:33.000Z,13.5
2023-05-14T09:16:39.000Z,13.2
2023-05-14T09:17:45.000Z,13.8
2023-05-14T09:18:51.000Z,13.5
2023-05-14T09:19:56.000Z,13.8
2023-05-14T09:21:02.000Z,13.2
2023-05-14T09:22:08.000Z,13.2
2023-05-14T09:23:14.000Z,14.5
2023-05-14T09:24:20.000Z,14.1
2023-05-14T09:25:26.000Z,13.8
2023-05-14T09:26:32.000Z,13.5
2023-05-14T09:27:38.000Z,13.2
2023-05-14T09:28:43.000Z,13.5
2023-05-14T09:29:48.000Z,13.5
2023-05-14T09:30:55.000Z,13.5
2023-05-14T09:32:01.000Z,12.8
2023-05-14T09:33:07.000Z,13.5
2023-05-14T09:34:13.000Z,13.5
2023-05-14T09:35:19.000Z,14.1
2023-05-14T09:36:25.000Z,13.8
2023-05-14T09:37:31.000Z,13.5
2023-05-14T09:38:37.000Z,13.8
2023-05-14T09:39:42.000Z,13.5
2023-05-14T09:40:47.000Z,13.2
2023-05-14T09:41:53.000Z,13.5
2023-05-14T09:42:59.000Z,13.8
2023-05-14T09:44:05.000Z,13.2
2023-05-14T09:45:12.000Z,14.5
2023-05-14T09:46:18.000Z,14.1
2023-05-14T09:48:30.000Z,13.5
2023-05-14T09:49:36.000Z,13.2
2023-05-14T09:50:42.000Z,13.8
2023-05-14T09:51:48.000Z,13.5
2023-05-14T09:52:54.000Z,13.5
2023-05-14T09:54:00.000Z,13.5
2023-05-14T09:55:05.000Z,14.1
2023-05-14T09:56:11.000Z,13.5
2023-05-14T09:57:17.000Z,13.5
2023-05-14T09:58:24.000Z,13.8
2023-05-14T09:59:30.000Z,13.8
2023-05-14T10:00:36.000Z,13.8
2023-05-14T10:01:42.000Z,13.8
2023-05-14T10:02:48.000Z,13.5
2023-05-14T10:03:54.000Z,13.8
2023-05-14T10:05:00.000Z,14.1
2023-05-14T10:06:06.000Z,13.8
2023-05-14T10:07:12.000Z,14.8
2023-05-14T10:08:18.000Z,13.8
2023-05-14T10:09:23.000Z,13.5
2023-05-14T10:10:29.000Z,13.2
2023-05-14T10:11:35.000Z,13.5
2023-05-14T10:12:42.000Z,14.5
2023-05-14T10:13:48.000Z,13.8
2023-05-14T10:14:54.000Z,13.8
2023-05-14T10:16:00.000Z,14.1
2023-05-14T10:17:06.000Z,14.1
2023-05-14T10:18:12.000Z,13.5
2023-05-14T10:19:18.000Z,13.5
2023-05-14T10:20:24.000Z,13.2
2023-05-14T10:21:30.000Z,14.1
2023-05-14T10:22:36.000Z,13.2
2023-05-14T10:23:41.000Z,12.8
2023-05-14T10:24:47.000Z,13.2
2023-05-14T10:25:53.000Z,13.8
2023-05-14T10:26:59.000Z,13.8
2023-05-14T10:28:06.000Z,13.5
2023-05-14T10:29:12.000Z,13.8
2023-05-14T10:30:18.000Z,13.8
2023-05-14T10:31:24.000Z,13.8
2023-05-14T10:32:30.000Z,13.5
2023-05-14T10:33:36.000Z,14.1
2023-05-14T10:34:42.000Z,13.8
2023-05-14T10:35:48.000Z,13.8
2023-05-14T10:36:54.000Z,13.8
2023-05-14T10:37:59.000Z,14.1
2023-05-14T10:39:05.000Z,13.8
2023-05-14T10:40:11.000Z,13.8
2023-05-14T10:41:17.000Z,13.8
2023-05-14T10:43:30.000Z,14.1
2023-05-14T10:44:36.000Z,13.8
2023-05-14T10:45:42.000Z,14.1
2023-05-14T10:46:48.000Z,13.5
2023-05-14T10:47:54.000Z,13.8
2023-05-14T10:49:00.000Z,14.1
2023-05-14T10:50:06.000Z,13.5
2023-05-14T10:51:12.000Z,13.8
2023-05-14T10:52:17.000Z,14.1
2023-05-14T10:53:23.000Z,13.5
2023-05-14T10:54:29.000Z,14.1
2023-05-14T10:55:35.000Z,13.5
2023-05-14T10:57:48.000Z,13.8
2023-05-14T10:58:54.000Z,13.8
2023-05-14T11:00:00.000Z,14.1
2023-05-14T11:01:06.000Z,13.5
2023-05-14T11:02:12.000Z,13.5
2023-05-14T11:03:18.000Z,13.8
2023-05-14T11:04:24.000Z,14.8
2023-05-14T11:05:30.000Z,13.8
2023-05-14T11:06:35.000Z,13.8
2023-05-14T11:08:47.000Z,13.8
2023-05-14T11:09:53.000Z,12.8
2023-05-14T11:11:00.000Z,14.5
2023-05-14T11:12:06.000Z,14.1
2023-05-14T11:13:12.000Z,14.5
2023-05-14T11:14:18.000Z,13.5
2023-05-14T11:15:24.000Z,13.2
2023-05-14T11:16:30.000Z,14.8
2023-05-14T11:17:36.000Z,13.5
2023-05-14T11:18:42.000Z,14.8
2023-05-14T11:19:48.000Z,13.8
2023-05-14T11:20:54.000Z,13.8
2023-05-14T11:21:59.000Z,14.1
2023-05-14T11:23:05.000Z,13.5
2023-05-14T11:24:11.000Z,13.5
2023-05-14T11:25:17.000Z,13.8
2023-05-14T11:26:24.000Z,13.5
2023-05-14T11:27:30.000Z,13.2
2023-05-14T11:28:36.000Z,14.1
2023-05-14T11:29:42.000Z,14.1
2023-05-14T11:30:48.000Z,13.2
2023-05-14T11:31:54.000Z,13.8
2023-05-14T11:33:00.000Z,13.8
2023-05-14T11:35:12.000Z,14.1
2023-05-14T11:36:17.000Z,13.8
2023-05-14T11:38:29.000Z,13.5
2023-05-14T11:39:35.000Z,14.1
2023-05-14T11:40:42.000Z,14.1
2023-05-14T11:41:48.000Z,13.8
2023-05-14T11:42:54.000Z,13.8
2023-05-14T11:44:00.000Z,15.1
2023-05-14T11:45:06.000Z,13.8
2023-05-14T11:46:12.000Z,14.5
2023-05-14T11:47:18.000Z,14.1
2023-05-14T11:48:23.000Z,14.1
2023-05-14T11:49:29.000Z,13.5
2023-05-14T11:50:35.000Z,13.8
2023-05-14T11:51:41.000Z,13.5
2023-05-14T11:52:47.000Z,13.8
2023-05-14T11:53:54.000Z,13.5
2023-05-14T11:55:00.000Z,14.1
2023-05-14T11:56:06.000Z,14.1
2023-05-14T11:57:12.000Z,14.5
2023-05-14T11:58:18.000Z,15.4
2023-05-14T11:59:24.000Z,14.1
2023-05-14T12:00:30.000Z,14.1
2023-05-14T12:01:36.000Z,14.5
2023-05-14T12:02:41.000Z,14.1
2023-05-14T12:03:47.000Z,14.5
2023-05-14T12:04:53.000Z,14.8
2023-05-14T12:05:59.000Z,13.8
2023-05-14T12:07:05.000Z,14.8
2023-05-14T12:08:11.000Z,14.8
2023-05-14T12:09:18.000Z,14.1
2023-05-14T12:10:24.000Z,15.1
2023-05-14T12:11:30.000Z,14.1
2023-05-14T12:12:36.000Z,14.5
2023-05-14T12:13:42.000Z,14.8
2023-05-14T12:14:48.000Z,14.1
2023-05-14T12:15:54.000Z,13.8
2023-05-14T12:16:59.000Z,14.5
2023-05-14T12:18:05.000Z,14.8
2023-05-14T12:19:11.000Z,14.5
2023-05-14T12:23:36.000Z,15.4
2023-05-14T12:24:41.000Z,14.5
2023-05-14T12:25:46.000Z,14.1
2023-05-14T12:26:52.000Z,14.1
2023-05-14T12:27:58.000Z,14.5
2023-05-14T12:29:04.000Z,15.1
2023-05-14T12:30:10.000Z,14.1
2023-05-14T12:31:16.000Z,14.5
2023-05-14T12:33:28.000Z,14.5
2023-05-14T12:34:34.000Z,14.1
2023-05-14T12:35:40.000Z,14.5
2023-05-14T12:36:46.000Z,14.5
2023-05-14T12:37:53.000Z,14.1
2023-05-14T12:38:59.000Z,14.8
2023-05-14T12:40:04.000Z,13.8
2023-05-14T12:41:10.000Z,13.8
2023-05-14T12:42:16.000Z,15.1
2023-05-14T12:43:22.000Z,14.5
2023-05-14T12:44:28.000Z,13.5
2023-05-14T12:45:34.000Z,13.8
2023-05-14T12:46:40.000Z,14.8
2023-05-14T12:47:46.000Z,14.5
2023-05-14T12:48:52.000Z,14.8
2023-05-14T12:49:57.000Z,14.8
2023-05-14T12:51:02.000Z,14.5
2023-05-14T12:52:09.000Z,14.5
2023-05-14T12:53:15.000Z,14.8
2023-05-14T12:54:21.000Z,14.8
2023-05-14T12:55:27.000Z,14.8
2023-05-14T12:56:33.000Z,15.7
2023-05-14T12:58:45.000Z,14.8
2023-05-14T12:59:51.000Z,14.5
2023-05-14T13:00:57.000Z,14.5
2023-05-14T13:03:09.000Z,15.1
2023-05-14T13:04:14.000Z,14.1
2023-05-14T13:05:20.000Z,15.1
2023-05-14T13:06:26.000Z,14.5
2023-05-14T13:07:32.000Z,14.5
2023-05-14T13:08:38.000Z,14.8
2023-05-14T13:09:44.000Z,14.8
2023-05-14T13:10:50.000Z,14.8
2023-05-14T13:11:56.000Z,14.5
2023-05-14T13:13:02.000Z,15.1
2023-05-14T13:14:08.000Z,14.5
2023-05-14T13:15:13.000Z,14.8
2023-05-14T13:16:18.000Z,15.4
2023-05-14T13:17:24.000Z,14.8
2023-05-14T13:18:30.000Z,15.7
2023-05-14T13:19:36.000Z,15.4
2023-05-14T13:20:43.000Z,14.5
2023-05-14T13:21:49.000Z,14.5
2023-05-14T13:22:55.000Z,15.7
2023-05-14T13:24:01.000Z,14.5
2023-05-14T13:25:07.000Z,14.1
2023-05-14T13:26:13.000Z,15.1
2023-05-14T13:28:25.000Z,14.8
2023-05-14T13:29:31.000Z,14.8
2023-05-14T13:30:37.000Z,15.1
2023-05-14T13:31:42.000Z,15.1
2023-05-14T13:32:48.000Z,14.8
2023-05-14T13:33:54.000Z,15.4
2023-05-14T13:35:00.000Z,15.1
2023-05-14T13:36:07.000Z,15.4
2023-05-14T13:37:13.000Z,15.4
2023-05-14T13:38:19.000Z,15.4
2023-05-14T13:39:25.000Z,15.7
2023-05-14T13:40:31.000Z,14.8
2023-05-14T13:41:37.000Z,15.1
2023-05-14T13:42:43.000Z,14.8
2023-05-14T13:43:49.000Z,15.4
2023-05-14T13:44:55.000Z,15.4
2023-05-14T13:46:00.000Z,15.7
2023-05-14T13:47:06.000Z,15.7
2023-05-14T13:48:12.000Z,15.7
2023-05-14T13:49:18.000Z,15.4
2023-05-14T13:50:25.000Z,16.1
2023-05-14T13:51:31.000Z,14.8
2023-05-14T13:52:37.000Z,16.1
2023-05-14T13:53:43.000Z,15.4
2023-05-14T13:54:49.000Z,16.1
2023-05-14T13:55:55.000Z,14.8
2023-05-14T13:57:01.000Z,15.7
2023-05-14T13:58:07.000Z,15.1
2023-05-14T13:59:13.000Z,15.1
2023-05-14T14:00:18.000Z,15.1
2023-05-14T14:01:24.000Z,15.4
2023-05-14T14:02:30.000Z,16.1
2023-05-14T14:03:36.000Z,15.7
2023-05-14T14:04:42.000Z,16.7
2023-05-14T14:05:49.000Z,15.1
2023-05-14T14:06:55.000Z,15.4
2023-05-14T14:08:01.000Z,15.4
2023-05-14T14:09:07.000Z,15.4
2023-05-14T14:10:13.000Z,15.7
2023-05-14T14:11:19.000Z,15.4
2023-05-14T14:12:25.000Z,15.4
2023-05-14T14:13:31.000Z,15.4
2023-05-14T14:14:36.000Z,15.7
2023-05-14T14:15:42.000Z,16.4
2023-05-14T14:16:48.000Z,15.7
2023-05-14T14:17:54.000Z,16.1
2023-05-14T14:19:01.000Z,15.7
2023-05-14T14:20:07.000Z,16.7
2023-05-14T14:21:13.000Z,16.7
2023-05-14T14:22:19.000Z,16.1
2023-05-14T14:23:25.000Z,15.7
2023-05-14T14:24:31.000Z,16.4
2023-05-14T14:25:37.000Z,15.7
2023-05-14T14:26:43.000Z,15.7
2023-05-14T14:27:49.000Z,14.8
2023-05-14T14:28:54.000Z,15.4
2023-05-14T14:30:00.000Z,15.1
2023-05-14T14:31:06.000Z,15.7
2023-05-14T14:32:12.000Z,15.7
2023-05-14T14:34:25.000Z,15.4
2023-05-14T14:35:31.000Z,16.7
2023-05-14T14:36:37.000Z,15.4
2023-05-14T14:37:43.000Z,15.4
2023-05-14T14:38:49.000Z,15.4
2023-05-14T14:39:55.000Z,15.4
2023-05-14T14:41:01.000Z,15.4
2023-05-14T14:42:07.000Z,16.4
2023-05-14T14:43:12.000Z,15.7
2023-05-14T14:45:24.000Z,16.1
2023-05-14T14:46:30.000Z,16.1
2023-05-14T14:48:43.000Z,16.1
2023-05-14T14:49:48.000Z,16.1
2023-05-14T14:50:53.000Z,15.7
2023-05-14T14:51:59.000Z,15.7
2023-05-14T14:53:05.000Z,16.4
2023-05-14T14:54:11.000Z,16.1
2023-05-14T14:55:17.000Z,14.8
2023-05-14T14:56:23.000Z,15.7
2023-05-14T14:57:29.000Z,15.7
2023-05-14T14:58:35.000Z,15.4
2023-05-14T14:59:41.000Z,16.1
2023-05-14T15:01:53.000Z,16.4
2023-05-14T15:02:59.000Z,15.7
2023-05-14T15:04:04.000Z,15.7
2023-05-14T15:05:10.000Z,16.1
2023-05-14T15:06:16.000Z,16.1
2023-05-14T15:07:22.000Z,16.7
2023-05-14T15:08:28.000Z,16.1
2023-05-14T15:09:34.000Z,15.7
2023-05-14T15:10:40.000Z,15.7
2023-05-14T15:11:46.000Z,16.4
2023-05-14T15:12:51.000Z,16.4
2023-05-14T15:13:56.000Z,15.4
2023-05-14T15:15:02.000Z,16.1
2023-05-14T15:16:09.000Z,15.7
2023-05-14T15:17:15.000Z,17
2023-05-14T15:18:21.000Z,15.4
2023-05-14T15:19:27.000Z,15.4
2023-05-14T15:20:33.000Z,16.1
2023-05-14T15:21:39.000Z,16.7
2023-05-14T15:22:45.000Z,16.4
2023-05-14T15:23:51.000Z,16.1
2023-05-14T15:24:57.000Z,16.1
2023-05-14T15:26:03.000Z,16.1
2023-05-14T15:27:09.000Z,15.7
2023-05-14T15:28:15.000Z,16.1
2023-05-14T15:29:20.000Z,15.7